Time;durP1;ratioP1;P1;durP2;ratioP2;P2;SDS_P1;SDS_P2;PMS_P1;PMS_P2;Temp;Humidity;BMP_temperature;BMP_pressure;BME280_temperature;BME280_humidity;BME280_pressure;Samples;Min_cycle;Max_cycle;Signal;HPM_P1;HPM_P2
2021/08/31 00:01:30;;;;;;;4.05;3.47;;;13.00;99.90;;;;;;4930774;29;20221;-68
2021/08/31 00:03:55;;;;;;;6.35;3.95;;;13.00;99.90;;;;;;4930462;29;20713;-66
2021/08/31 00:06:21;;;;;;;4.70;3.53;;;13.00;99.90;;;;;;4930583;29;20209;-66
2021/08/31 00:08:47;;;;;;;5.13;3.55;;;13.00;99.90;;;;;;4930584;29;20231;-65
2021/08/31 00:11:12;;;;;;;5.90;3.90;;;12.90;99.90;;;;;;4930322;29;20216;-67
2021/08/31 00:13:38;;;;;;;5.05;3.58;;;12.90;99.90;;;;;;4930979;29;20182;-67
2021/08/31 00:16:05;;;;;;;4.00;3.33;;;12.90;99.90;;;;;;4929713;29;20678;-69
2021/08/31 00:18:30;;;;;;;4.95;3.72;;;12.90;99.90;;;;;;4930870;29;20555;-64
2021/08/31 00:20:57;;;;;;;5.55;4.38;;;12.80;99.90;;;;;;4930406;29;20187;-69
2021/08/31 00:23:22;;;;;;;3.85;3.45;;;12.80;99.90;;;;;;4930290;29;20214;-67
2021/08/31 00:25:52;;;;;;;4.28;3.58;;;12.80;99.90;;;;;;4929729;29;20560;-67
2021/08/31 00:28:21;;;;;;;5.75;4.20;;;12.80;99.90;;;;;;4930590;29;20285;-66
2021/08/31 00:30:47;;;;;;;6.40;4.38;;;12.80;99.90;;;;;;4930740;29;20181;-67
2021/08/31 00:33:12;;;;;;;3.83;3.47;;;12.80;99.90;;;;;;4930544;29;20261;-67
2021/08/31 00:35:38;;;;;;;4.35;3.80;;;12.80;99.90;;;;;;4929023;29;20226;-68
2021/08/31 00:38:04;;;;;;;5.22;3.92;;;12.70;99.90;;;;;;4930842;29;20291;-65
2021/08/31 00:40:30;;;;;;;4.57;4.05;;;12.60;99.90;;;;;;4930205;29;20252;-67
2021/08/31 00:42:55;;;;;;;6.47;4.38;;;12.60;99.90;;;;;;4930387;29;20253;-67
2021/08/31 00:45:21;;;;;;;4.97;3.85;;;12.60;99.90;;;;;;4929657;29;20563;-67
2021/08/31 00:47:47;;;;;;;7.82;4.20;;;12.60;99.90;;;;;;4930301;29;20254;-69
2021/08/31 00:50:16;;;;;;;4.88;4.10;;;12.60;99.90;;;;;;4930363;29;20262;-67
2021/08/31 00:52:42;;;;;;;4.85;4.15;;;12.50;99.90;;;;;;4930032;29;20186;-68
2021/08/31 00:55:09;;;;;;;5.15;4.18;;;12.50;99.90;;;;;;4929074;29;20212;-69
2021/08/31 00:57:37;;;;;;;6.15;4.80;;;12.50;99.90;;;;;;4930378;29;20563;-68
2021/08/31 01:00:06;;;;;;;3.97;3.58;;;12.40;99.90;;;;;;4929690;29;20217;-66
2021/08/31 01:02:31;;;;;;;5.18;4.32;;;12.40;99.90;;;;;;4929825;29;20225;-67
2021/08/31 01:04:57;;;;;;;4.90;4.18;;;12.40;99.90;;;;;;4927753;29;20573;-68
2021/08/31 01:07:23;;;;;;;4.72;3.72;;;12.30;99.90;;;;;;4929709;29;20196;-65
2021/08/31 01:09:49;;;;;;;4.38;3.58;;;12.30;99.90;;;;;;4929538;29;20293;-67
2021/08/31 01:12:19;;;;;;;4.20;3.75;;;12.30;99.90;;;;;;4930065;29;20186;-65
2021/08/31 01:14:46;;;;;;;4.05;3.38;;;12.40;99.90;;;;;;4928844;29;20210;-68
2021/08/31 01:17:11;;;;;;;5.35;4.30;;;12.50;99.90;;;;;;4929826;29;20190;-69
2021/08/31 01:19:37;;;;;;;5.20;4.22;;;12.50;99.90;;;;;;4929305;29;20198;-67
2021/08/31 01:22:08;;;;;;;5.05;3.92;;;12.60;99.90;;;;;;4929633;29;20629;-67
2021/08/31 01:24:34;;;;;;;8.10;4.15;;;12.70;99.90;;;;;;4927118;29;20357;-66
2021/08/31 01:27:01;;;;;;;6.15;3.78;;;12.70;99.90;;;;;;4929624;29;20179;-66
2021/08/31 01:29:28;;;;;;;4.93;4.05;;;12.80;99.90;;;;;;4929064;29;20181;-68
2021/08/31 01:31:54;;;;;;;7.10;4.30;;;12.90;99.90;;;;;;4928393;29;20186;-68
2021/08/31 01:34:20;;;;;;;4.90;4.05;;;12.90;99.90;;;;;;4927335;29;20214;-68
2021/08/31 01:36:45;;;;;;;4.38;3.97;;;13.00;99.90;;;;;;4929237;29;20726;-68
2021/08/31 01:39:11;;;;;;;5.47;4.03;;;13.00;99.90;;;;;;4929364;29;20670;-66
2021/08/31 01:41:36;;;;;;;5.22;4.18;;;13.00;99.90;;;;;;4927713;29;20237;-67
2021/08/31 01:44:02;;;;;;;4.95;3.97;;;13.00;99.90;;;;;;4928352;29;20190;-68
2021/08/31 01:46:28;;;;;;;4.88;4.32;;;13.00;99.90;;;;;;4929334;29;20186;-66
2021/08/31 01:48:54;;;;;;;5.40;4.07;;;13.10;99.90;;;;;;4928305;29;20233;-65
2021/08/31 01:51:19;;;;;;;4.15;3.75;;;13.10;99.90;;;;;;4929245;29;20198;-65
2021/08/31 01:53:45;;;;;;;4.32;3.60;;;13.00;99.90;;;;;;4928119;29;20221;-68
2021/08/31 01:56:11;;;;;;;4.63;4.18;;;13.00;99.90;;;;;;4929074;29;20210;-67
2021/08/31 01:58:36;;;;;;;4.45;3.95;;;13.00;99.90;;;;;;4929268;29;20579;-69
2021/08/31 02:01:03;;;;;;;4.40;3.60;;;12.90;99.90;;;;;;4929261;29;20506;-69
2021/08/31 02:03:28;;;;;;;5.38;3.78;;;12.80;99.90;;;;;;4929548;29;20273;-68
2021/08/31 02:05:54;;;;;;;4.82;3.50;;;12.70;99.90;;;;;;4928242;29;20799;-67
2021/08/31 02:08:19;;;;;;;5.07;4.20;;;12.70;99.90;;;;;;4929119;29;20190;-67
2021/08/31 02:10:45;;;;;;;5.40;4.43;;;12.60;99.90;;;;;;4928360;29;20938;-66
2021/08/31 02:13:11;;;;;;;4.22;3.60;;;12.60;99.90;;;;;;4929084;29;20190;-68
2021/08/31 02:15:37;;;;;;;4.82;3.72;;;12.70;99.90;;;;;;4927344;29;20289;-67
2021/08/31 02:18:03;;;;;;;4.88;4.13;;;12.70;99.90;;;;;;4929155;29;20198;-67
2021/08/31 02:20:29;;;;;;;5.80;3.90;;;12.70;99.90;;;;;;4928215;29;20197;-68
2021/08/31 02:22:56;;;;;;;4.60;3.95;;;12.70;99.90;;;;;;4928981;29;20605;-69
2021/08/31 02:25:21;;;;;;;4.50;3.92;;;12.60;99.90;;;;;;4927753;29;20677;-66
2021/08/31 02:27:47;;;;;;;5.43;4.20;;;12.60;99.90;;;;;;4927463;29;20193;-67
2021/08/31 02:30:13;;;;;;;5.93;4.57;;;12.60;99.90;;;;;;4928247;29;20193;-66
2021/08/31 02:32:39;;;;;;;4.50;3.95;;;12.60;99.90;;;;;;4928542;29;20189;-67
2021/08/31 02:35:06;;;;;;;6.18;4.57;;;12.60;99.90;;;;;;4927254;29;20222;-68
2021/08/31 02:37:32;;;;;;;6.50;4.57;;;12.60;99.90;;;;;;4928674;29;20609;-67
2021/08/31 02:39:57;;;;;;;4.25;3.85;;;12.60;99.90;;;;;;4928068;29;20186;-69
2021/08/31 02:42:23;;;;;;;4.38;3.92;;;12.70;99.90;;;;;;4928642;29;20665;-66
2021/08/31 02:44:49;;;;;;;5.90;4.32;;;12.70;99.90;;;;;;4927016;29;20202;-68
2021/08/31 02:47:15;;;;;;;5.53;4.20;;;12.80;99.90;;;;;;4928557;29;20540;-66
2021/08/31 02:49:40;;;;;;;5.63;4.38;;;12.80;99.90;;;;;;4927866;29;20187;-68
2021/08/31 02:52:07;;;;;;;4.40;3.78;;;12.90;99.90;;;;;;4928475;29;20182;-67
2021/08/31 02:54:32;;;;;;;4.72;4.00;;;12.90;99.90;;;;;;4927329;29;20198;-67
2021/08/31 02:56:58;;;;;;;4.40;3.65;;;12.90;99.90;;;;;;4928322;29;20193;-65
2021/08/31 02:59:25;;;;;;;4.55;4.07;;;12.90;99.90;;;;;;4928186;29;20270;-66
2021/08/31 03:04:27;;;;;;;4.38;3.88;;;12.80;99.90;;;;;;4927111;29;20324;-66
2021/08/31 03:06:53;;;;;;;4.57;4.00;;;12.80;99.90;;;;;;4928329;29;20217;-67
2021/08/31 03:09:18;;;;;;;4.70;3.95;;;12.70;99.90;;;;;;4928079;29;20225;-68
2021/08/31 03:11:44;;;;;;;5.75;4.00;;;12.70;99.90;;;;;;4928251;29;20197;-68
2021/08/31 03:14:10;;;;;;;4.45;3.80;;;12.70;99.90;;;;;;4926991;29;20194;-69
2021/08/31 03:16:35;;;;;;;5.57;3.45;;;12.70;99.90;;;;;;4927297;29;20269;-67
2021/08/31 03:19:01;;;;;;;4.13;3.65;;;12.70;99.90;;;;;;4927784;29;20194;-66
2021/08/31 03:21:28;;;;;;;4.15;3.65;;;12.80;99.90;;;;;;4927553;29;20642;-67
2021/08/31 03:23:53;;;;;;;4.30;3.90;;;12.80;99.90;;;;;;4926882;29;20285;-68
2021/08/31 03:26:19;;;;;;;4.85;3.58;;;12.80;99.90;;;;;;4927283;29;20202;-67
2021/08/31 03:28:45;;;;;;;4.38;3.60;;;12.80;99.90;;;;;;4926576;29;20223;-67
2021/08/31 03:31:11;;;;;;;4.07;3.67;;;12.80;99.90;;;;;;4913272;29;20281;-66
2021/08/31 03:33:36;;;;;;;6.07;3.78;;;12.80;99.90;;;;;;4931253;29;20733;-67
2021/08/31 03:36:04;;;;;;;4.38;3.35;;;12.90;99.90;;;;;;4930242;29;20296;-68
2021/08/31 03:38:30;;;;;;;3.88;3.47;;;12.90;99.90;;;;;;4930547;29;20186;-65
2021/08/31 03:40:56;;;;;;;4.32;3.92;;;12.90;99.90;;;;;;4930383;29;20178;-66
2021/08/31 03:43:21;;;;;;;4.97;4.47;;;12.90;99.90;;;;;;4930149;29;20764;-67
2021/08/31 03:45:47;;;;;;;4.80;3.60;;;12.90;99.90;;;;;;4929108;29;20202;-67
2021/08/31 03:48:13;;;;;;;5.32;3.85;;;12.90;99.90;;;;;;4930301;29;20627;-68
2021/08/31 03:50:38;;;;;;;5.13;3.90;;;12.90;99.90;;;;;;4929880;29;20190;-67
2021/08/31 03:53:04;;;;;;;6.07;4.18;;;13.00;99.90;;;;;;4930405;29;20190;-68
2021/08/31 03:55:29;;;;;;;8.68;4.15;;;12.90;99.90;;;;;;4929234;29;20237;-67
2021/08/31 03:57:55;;;;;;;4.55;3.72;;;13.00;99.90;;;;;;4929967;29;20361;-67
2021/08/31 04:00:20;;;;;;;5.75;4.35;;;13.00;99.90;;;;;;4928679;29;20201;-68
2021/08/31 04:02:46;;;;;;;5.50;4.05;;;13.10;99.90;;;;;;4929912;29;20220;-70
2021/08/31 04:05:12;;;;;;;5.75;4.00;;;13.10;99.90;;;;;;4928938;29;20213;-65
2021/08/31 04:07:37;;;;;;;6.57;4.68;;;13.10;99.90;;;;;;4928472;29;20693;-67
2021/08/31 04:10:03;;;;;;;5.28;4.68;;;13.00;99.90;;;;;;4929650;29;20199;-65
2021/08/31 04:12:29;;;;;;;4.72;3.80;;;13.00;99.90;;;;;;4929742;29;20677;-65
2021/08/31 04:14:54;;;;;;;4.55;4.07;;;12.90;99.90;;;;;;4927029;29;20245;-67
2021/08/31 04:17:20;;;;;;;6.72;4.13;;;12.80;99.90;;;;;;4929655;29;20190;-70
2021/08/31 04:19:45;;;;;;;4.40;3.90;;;12.80;99.90;;;;;;4929458;29;20182;-68
2021/08/31 04:22:11;;;;;;;6.07;4.38;;;12.70;99.90;;;;;;4929611;29;20248;-66
2021/08/31 04:24:37;;;;;;;6.38;4.65;;;12.60;99.90;;;;;;4928743;29;20309;-67
2021/08/31 04:27:03;;;;;;;6.20;4.40;;;12.50;99.90;;;;;;4929735;29;20550;-67
2021/08/31 04:29:29;;;;;;;6.97;4.70;;;12.50;99.90;;;;;;4929075;29;20191;-69
2021/08/31 04:31:54;;;;;;;5.15;4.50;;;12.50;99.90;;;;;;4929705;29;20194;-67
2021/08/31 04:34:20;;;;;;;6.20;4.53;;;12.50;99.90;;;;;;4928155;29;20636;-68
2021/08/31 04:36:46;;;;;;;5.32;4.68;;;12.40;99.90;;;;;;4929474;29;20230;-68
2021/08/31 04:39:11;;;;;;;6.05;3.97;;;12.40;99.90;;;;;;4928647;29;20198;-66
2021/08/31 04:41:37;;;;;;;4.50;3.97;;;12.40;99.90;;;;;;4929268;29;20206;-66
2021/08/31 04:44:02;;;;;;;6.03;4.70;;;12.40;99.90;;;;;;4928294;29;20273;-67
2021/08/31 04:46:28;;;;;;;5.40;4.40;;;12.40;99.90;;;;;;4929276;29;20186;-67
2021/08/31 04:48:54;;;;;;;4.95;4.10;;;12.50;99.90;;;;;;4928800;29;20184;-67
2021/08/31 04:51:19;;;;;;;5.53;4.70;;;12.50;99.90;;;;;;4929138;29;20189;-65
2021/08/31 04:53:45;;;;;;;6.43;4.38;;;12.50;99.90;;;;;;4928102;29;20588;-67
2021/08/31 04:56:10;;;;;;;7.63;4.55;;;12.60;99.90;;;;;;4928421;29;20301;-66
2021/08/31 04:58:36;;;;;;;6.80;4.28;;;12.60;99.90;;;;;;4928760;29;20185;-66
2021/08/31 05:01:02;;;;;;;8.95;5.63;;;12.70;99.90;;;;;;4928739;29;20194;-68
2021/08/31 05:03:28;;;;;;;5.47;4.97;;;12.80;99.90;;;;;;4928876;29;20234;-67
2021/08/31 05:05:53;;;;;;;6.32;4.63;;;12.80;99.90;;;;;;4927945;29;20222;-68
2021/08/31 05:08:19;;;;;;;6.55;5.10;;;12.90;99.90;;;;;;4928704;29;20665;-69
2021/08/31 05:10:44;;;;;;;7.93;5.55;;;13.00;99.90;;;;;;4928284;29;20178;-67
2021/08/31 05:13:10;;;;;;;8.00;5.35;;;13.10;99.90;;;;;;4928564;29;20642;-65
2021/08/31 05:15:37;;;;;;;7.00;4.95;;;13.10;99.90;;;;;;4927451;29;20210;-66
2021/08/31 05:18:04;;;;;;;5.65;4.90;;;13.20;99.90;;;;;;4928698;29;20225;-67
2021/08/31 05:20:29;;;;;;;6.63;4.55;;;13.20;99.90;;;;;;4928494;29;20301;-68
2021/08/31 05:22:55;;;;;;;7.45;5.15;;;13.20;99.90;;;;;;4926860;29;20304;-68
2021/08/31 05:25:21;;;;;;;7.45;5.63;;;13.20;99.90;;;;;;4927601;29;20242;-66
2021/08/31 05:27:47;;;;;;;6.53;5.30;;;13.20;99.90;;;;;;4928089;29;20438;-67
2021/08/31 05:30:13;;;;;;;5.90;5.28;;;13.30;99.90;;;;;;4928154;29;20716;-69
2021/08/31 05:32:38;;;;;;;6.22;5.25;;;13.40;99.90;;;;;;4928392;29;20264;-65
2021/08/31 05:35:04;;;;;;;8.52;5.53;;;13.40;99.90;;;;;;4927227;29;20225;-67
2021/08/31 05:37:30;;;;;;;7.15;5.22;;;13.50;99.90;;;;;;4928333;29;20264;-66
2021/08/31 05:39:56;;;;;;;5.97;5.10;;;13.50;99.90;;;;;;4927971;29;20186;-68
2021/08/31 05:42:21;;;;;;;8.63;5.40;;;13.60;99.90;;;;;;4927960;29;20548;-68
2021/08/31 05:44:47;;;;;;;7.43;5.45;;;13.70;99.90;;;;;;4925723;29;20567;-68
2021/08/31 05:47:12;;;;;;;7.53;5.32;;;13.70;99.90;;;;;;4928371;29;20189;-67
2021/08/31 05:49:38;;;;;;;6.95;5.60;;;13.80;99.90;;;;;;4928199;29;20209;-68
2021/08/31 05:52:04;;;;;;;7.32;5.50;;;13.80;99.90;;;;;;4927644;29;20322;-67
2021/08/31 05:54:30;;;;;;;7.38;5.20;;;13.90;99.90;;;;;;4927104;29;20721;-66
2021/08/31 05:56:58;;;;;;;7.15;5.75;;;13.90;99.90;;;;;;4928055;29;20210;-66
2021/08/31 05:59:24;;;;;;;6.97;5.70;;;14.00;99.90;;;;;;4928398;29;20182;-66
2021/08/31 06:01:49;;;;;;;7.53;5.53;;;14.00;99.90;;;;;;4927877;29;20260;-68
2021/08/31 06:04:16;;;;;;;7.75;5.70;;;14.10;99.90;;;;;;4927609;29;20580;-65
2021/08/31 06:06:41;;;;;;;9.50;5.45;;;14.10;99.90;;;;;;4927615;29;20182;-65
2021/08/31 06:09:07;;;;;;;6.63;5.35;;;14.10;99.90;;;;;;4929162;29;20210;-66
2021/08/31 06:11:39;;;;;;;7.85;5.47;;;14.10;99.90;;;;;;4927442;29;20654;-68
2021/08/31 06:14:06;;;;;;;6.47;5.40;;;14.20;99.90;;;;;;4926907;29;20208;-65
2021/08/31 06:16:32;;;;;;;7.35;6.00;;;14.30;99.90;;;;;;4927493;29;20926;-67
2021/08/31 06:18:58;;;;;;;8.00;5.90;;;14.30;99.90;;;;;;4928736;29;20606;-67
2021/08/31 06:21:23;;;;;;;9.18;6.47;;;14.40;99.90;;;;;;4928292;29;20186;-68
2021/08/31 06:23:49;;;;;;;8.52;6.55;;;14.40;99.90;;;;;;4928309;29;20185;-67
2021/08/31 06:26:15;;;;;;;8.60;6.18;;;14.50;99.90;;;;;;4928015;29;20261;-66
2021/08/31 06:28:40;;;;;;;8.07;6.40;;;14.60;99.90;;;;;;4928482;29;20190;-66
2021/08/31 06:31:06;;;;;;;9.73;7.20;;;14.60;99.90;;;;;;4928121;29;20240;-68
2021/08/31 06:33:31;;;;;;;11.38;7.03;;;14.70;99.90;;;;;;4928288;29;20651;-66
2021/08/31 06:35:57;;;;;;;8.93;6.60;;;14.80;99.90;;;;;;4926650;29;20225;-68
2021/08/31 06:38:23;;;;;;;11.13;7.05;;;14.90;99.90;;;;;;4928587;29;20654;-67
2021/08/31 06:40:48;;;;;;;10.45;7.13;;;15.10;99.90;;;;;;4927831;29;20213;-67
2021/08/31 06:43:15;;;;;;;9.43;6.72;;;15.20;99.90;;;;;;4928065;29;20214;-65
2021/08/31 06:45:41;;;;;;;12.95;8.85;;;15.10;99.90;;;;;;4924308;29;20205;-68
2021/08/31 06:48:06;;;;;;;8.63;6.75;;;15.10;99.90;;;;;;4923418;29;20209;-66
2021/08/31 06:50:32;;;;;;;9.80;6.88;;;15.10;99.90;;;;;;4925670;29;20609;-65
2021/08/31 06:52:58;;;;;;;9.70;6.80;;;15.20;99.90;;;;;;4927129;29;20186;-68
2021/08/31 06:55:24;;;;;;;8.50;6.57;;;15.20;99.90;;;;;;4925796;29;20212;-68
2021/08/31 06:57:50;;;;;;;8.60;6.45;;;15.20;99.90;;;;;;4927213;29;20551;-67
2021/08/31 07:00:16;;;;;;;9.60;6.63;;;15.20;99.90;;;;;;4926914;29;20182;-67
2021/08/31 07:02:42;;;;;;;9.80;7.40;;;15.30;99.90;;;;;;4928238;29;20262;-65
2021/08/31 07:05:08;;;;;;;10.95;7.28;;;15.20;99.90;;;;;;4930038;29;20583;-67
2021/08/31 07:07:34;;;;;;;10.43;7.93;;;15.20;99.90;;;;;;4930616;29;20182;-65
2021/08/31 07:10:00;;;;;;;10.63;7.70;;;15.20;99.90;;;;;;4929128;29;20187;-68
2021/08/31 07:12:25;;;;;;;9.88;7.70;;;15.30;99.90;;;;;;4930706;29;20198;-67
2021/08/31 07:14:52;;;;;;;9.15;6.80;;;15.30;99.90;;;;;;4929607;29;20210;-66
2021/08/31 07:17:18;;;;;;;11.32;7.28;;;15.30;99.90;;;;;;4930767;29;20186;-67
2021/08/31 07:19:44;;;;;;;10.52;7.97;;;15.30;99.90;;;;;;4930305;29;20186;-68
2021/08/31 07:22:11;;;;;;;10.18;7.82;;;15.40;99.90;;;;;;4930373;29;20940;-66
2021/08/31 07:24:36;;;;;;;10.38;6.80;;;15.50;99.90;;;;;;4929691;29;20206;-66
2021/08/31 07:27:03;;;;;;;10.63;6.72;;;15.50;99.90;;;;;;4930353;29;20646;-67
2021/08/31 07:29:28;;;;;;;8.70;6.85;;;15.50;99.90;;;;;;4930583;29;20190;-68
2021/08/31 07:31:54;;;;;;;10.05;6.97;;;15.50;99.90;;;;;;4930058;29;20596;-69
2021/08/31 07:34:20;;;;;;;9.90;6.30;;;15.50;99.90;;;;;;4929610;29;20210;-66
2021/08/31 07:36:46;;;;;;;10.32;7.35;;;15.60;99.90;;;;;;4929947;29;20190;-68
2021/08/31 07:39:12;;;;;;;8.07;6.45;;;15.70;99.90;;;;;;4929040;29;20525;-66
2021/08/31 07:41:38;;;;;;;10.10;6.40;;;15.80;99.90;;;;;;4929851;29;20210;-69
2021/08/31 07:44:04;;;;;;;8.13;5.90;;;15.80;99.90;;;;;;4925157;29;20222;-69
2021/08/31 07:46:31;;;;;;;8.38;6.38;;;15.90;99.90;;;;;;4929550;29;20213;-66
2021/08/31 07:48:59;;;;;;;7.47;6.22;;;15.90;99.90;;;;;;4931571;29;20206;-68
2021/08/31 07:51:25;;;;;;;8.05;5.45;;;15.90;99.90;;;;;;4929631;29;20206;-66
2021/08/31 07:53:51;;;;;;;9.18;6.32;;;16.00;99.90;;;;;;4928876;29;20213;-66
2021/08/31 07:56:17;;;;;;;7.63;6.40;;;16.10;99.90;;;;;;4928539;29;20249;-66
2021/08/31 07:58:43;;;;;;;7.82;5.30;;;16.20;99.90;;;;;;4930272;29;20189;-68
2021/08/31 08:01:09;;;;;;;13.73;6.18;;;16.30;99.90;;;;;;4928499;29;20194;-67
2021/08/31 08:03:35;;;;;;;8.35;5.28;;;16.30;99.90;;;;;;4930564;29;20206;-69
2021/08/31 08:06:00;;;;;;;6.80;5.60;;;16.30;99.90;;;;;;4927673;29;20198;-69
2021/08/31 08:08:27;;;;;;;8.35;5.72;;;16.30;99.90;;;;;;4930108;29;20193;-68
2021/08/31 08:10:53;;;;;;;7.80;6.30;;;16.30;99.90;;;;;;4929456;29;20188;-67
2021/08/31 08:13:18;;;;;;;7.53;5.45;;;16.30;99.90;;;;;;4929470;29;20186;-67
2021/08/31 08:15:44;;;;;;;8.82;5.80;;;16.20;99.90;;;;;;4927817;29;20678;-68
2021/08/31 08:18:10;;;;;;;8.98;6.00;;;16.20;99.90;;;;;;4929681;29;20191;-67
2021/08/31 08:20:41;;;;;;;7.82;5.40;;;16.30;99.90;;;;;;4929554;29;20228;-69
2021/08/31 08:23:07;;;;;;;7.47;5.63;;;16.50;99.90;;;;;;4929872;29;20257;-69
2021/08/31 08:25:32;;;;;;;7.15;5.28;;;16.60;99.90;;;;;;4928635;29;20277;-66
2021/08/31 08:27:58;;;;;;;8.48;5.72;;;16.70;99.90;;;;;;4929966;29;20181;-71
2021/08/31 08:30:24;;;;;;;7.10;5.75;;;16.60;99.90;;;;;;4928554;29;20183;-68
2021/08/31 08:32:49;;;;;;;8.25;5.93;;;16.60;99.90;;;;;;4928017;29;20184;-68
2021/08/31 08:35:15;;;;;;;7.53;5.22;;;16.40;99.90;;;;;;4927607;29;20630;-68
2021/08/31 08:37:41;;;;;;;6.55;4.88;;;16.70;99.90;;;;;;4928467;29;20205;-68
2021/08/31 08:40:08;;;;;;;5.80;5.10;;;17.00;99.90;;;;;;4928288;29;20194;-68
2021/08/31 08:42:35;;;;;;;7.28;4.82;;;17.20;99.90;;;;;;4929106;29;20546;-68
2021/08/31 08:45:01;;;;;;;7.03;4.78;;;17.30;99.90;;;;;;4928432;29;20210;-70
2021/08/31 08:47:27;;;;;;;6.55;4.65;;;17.50;99.90;;;;;;4929396;29;20243;-67
2021/08/31 08:49:52;;;;;;;6.38;3.72;;;17.80;99.90;;;;;;4929083;29;20695;-67
2021/08/31 08:52:18;;;;;;;6.97;4.95;;;17.70;99.90;;;;;;4929205;29;20190;-68
2021/08/31 08:54:44;;;;;;;7.18;4.60;;;17.60;99.90;;;;;;4928488;29;20206;-69
2021/08/31 08:57:10;;;;;;;6.30;4.95;;;17.70;99.90;;;;;;4944088;28;20228;-67
2021/08/31 08:59:38;;;;;;;6.20;4.47;;;17.60;99.90;;;;;;4929350;29;20212;-68
2021/08/31 09:02:04;;;;;;;7.00;4.50;;;17.70;99.90;;;;;;4929003;29;20218;-67
2021/08/31 09:04:48;;;;;;;9.20;4.35;;;17.70;99.90;;;;;;4928564;29;20600;-69
2021/08/31 09:07:23;;;;;;;5.80;4.07;;;17.90;99.90;;;;;;4929231;29;20178;-68
2021/08/31 09:09:50;;;;;;;5.03;4.03;;;17.80;99.90;;;;;;4929207;29;20240;-71
2021/08/31 09:12:30;;;;;;;6.28;4.22;;;17.90;99.90;;;;;;4928886;29;20190;-67
2021/08/31 09:14:55;;;;;;;6.65;4.70;;;18.10;99.90;;;;;;4942402;28;20210;-69
2021/08/31 09:17:21;;;;;;;5.53;4.22;;;18.40;99.90;;;;;;4928954;29;20244;-68
2021/08/31 09:19:47;;;;;;;4.35;3.35;;;18.60;99.90;;;;;;4929018;29;20666;-69
2021/08/31 09:22:23;;;;;;;4.88;3.58;;;18.50;99.90;;;;;;4928567;29;20225;-68
2021/08/31 09:24:56;;;;;;;5.75;4.13;;;18.50;99.90;;;;;;4928071;29;20197;-68
2021/08/31 09:27:52;;;;;;;5.55;3.67;;;18.70;99.90;;;;;;4927692;29;20225;-69
2021/08/31 09:30:21;;;;;;;4.57;3.33;;;19.10;99.90;;;;;;4912480;29;20194;-67
2021/08/31 09:33:08;;;;;;;3.92;3.53;;;19.00;99.90;;;;;;4927228;29;20269;-68
2021/08/31 09:35:35;;;;;;;4.70;3.40;;;18.90;99.90;;;;;;4927233;29;20592;-68
2021/08/31 09:38:03;;;;;;;4.07;3.20;;;18.80;99.90;;;;;;4928466;29;20189;-69
2021/08/31 09:40:30;;;;;;;4.25;3.42;;;19.00;99.90;;;;;;4928250;29;20186;-68
2021/08/31 09:42:56;;;;;;;5.10;3.92;;;19.10;99.90;;;;;;4928379;29;20302;-67
2021/08/31 09:45:30;;;;;;;4.20;3.15;;;18.90;99.90;;;;;;4927164;29;20289;-69
2021/08/31 09:48:05;;;;;;;4.50;3.50;;;18.60;99.90;;;;;;5102106;27;20588;-68
2021/08/31 09:50:37;;;;;;;3.45;2.85;;;18.50;99.90;;;;;;5101224;28;20270;-68
2021/08/31 09:53:09;;;;;;;4.10;3.42;;;18.50;99.90;;;;;;5101867;28;20211;-68
2021/08/31 09:55:35;;;;;;;3.20;2.70;;;18.60;99.90;;;;;;5100982;28;20208;-66
2021/08/31 09:58:14;;;;;;;3.03;2.75;;;18.80;99.90;;;;;;5099493;28;20601;-66
2021/08/31 10:00:42;;;;;;;4.07;3.08;;;19.20;99.90;;;;;;5096073;28;20317;-66
2021/08/31 10:03:09;;;;;;;5.30;3.10;;;19.30;99.90;;;;;;5101271;28;20233;-67
2021/08/31 10:05:35;;;;;;;3.78;2.92;;;19.50;99.90;;;;;;5100314;28;20330;-67
2021/08/31 10:08:02;;;;;;;5.10;3.20;;;19.80;99.90;;;;;;5101174;28;20653;-67
2021/08/31 10:10:30;;;;;;;3.83;3.05;;;19.90;99.90;;;;;;5100612;28;20172;-66
2021/08/31 10:12:57;;;;;;;3.03;2.70;;;20.00;99.90;;;;;;5100499;28;20184;-67
2021/08/31 10:15:24;;;;;;;3.35;2.70;;;20.10;99.90;;;;;;5100506;28;20192;-67
2021/08/31 10:17:52;;;;;;;3.65;3.13;;;20.00;99.90;;;;;;5101348;28;20192;-65
2021/08/31 10:20:28;;;;;;;3.70;2.72;;;20.20;99.90;;;;;;5102254;28;20181;-67
2021/08/31 10:22:56;;;;;;;3.70;3.05;;;20.20;99.90;;;;;;5100977;28;20549;-67
2021/08/31 10:25:27;;;;;;;3.70;2.42;;;20.30;99.90;;;;;;5101030;28;20200;-67
2021/08/31 10:27:55;;;;;;;3.75;2.28;;;20.40;99.90;;;;;;5101926;28;20208;-67
2021/08/31 10:30:21;;;;;;;3.42;2.33;;;20.40;99.90;;;;;;5101981;28;20176;-67
2021/08/31 10:32:51;;;;;;;4.22;3.10;;;20.40;99.90;;;;;;5102229;28;20234;-67
2021/08/31 10:35:35;;;;;;;3.28;2.50;;;20.40;99.90;;;;;;5101439;28;20188;-65
2021/08/31 10:38:03;;;;;;;3.17;2.83;;;20.60;99.90;;;;;;5101324;28;20208;-67
2021/08/31 10:40:43;;;;;;;3.22;2.50;;;20.60;99.90;;;;;;5100709;28;20208;-67
2021/08/31 10:43:12;;;;;;;3.05;2.63;;;20.80;99.90;;;;;;5100645;28;20172;-68
2021/08/31 10:45:52;;;;;;;3.47;2.67;;;20.80;99.90;;;;;;5099573;28;20196;-69
2021/08/31 10:48:23;;;;;;;3.38;2.67;;;20.90;99.90;;;;;;5100586;28;20242;-67
2021/08/31 10:50:59;;;;;;;3.13;2.60;;;21.30;99.90;;;;;;5100832;28;20905;-68
2021/08/31 10:53:36;;;;;;;3.38;2.60;;;21.30;99.90;;;;;;5101052;28;20305;-67
2021/08/31 10:56:22;;;;;;;3.38;2.40;;;21.30;99.90;;;;;;5100456;28;20204;-68
2021/08/31 10:58:57;;;;;;;2.85;2.50;;;21.30;99.90;;;;;;5091672;28;20185;-67
2021/08/31 11:01:24;;;;;;;3.05;2.65;;;21.50;99.90;;;;;;5086230;28;20177;-65
2021/08/31 11:03:52;;;;;;;3.40;2.40;;;21.40;99.90;;;;;;5084668;28;20222;-65
2021/08/31 11:06:26;;;;;;;3.65;2.40;;;21.30;99.90;;;;;;5086246;28;20209;-67
2021/08/31 11:09:08;;;;;;;3.00;2.17;;;21.60;99.90;;;;;;5086657;28;20183;-66
2021/08/31 11:11:33;;;;;;;3.20;1.98;;;21.70;99.90;;;;;;5081458;28;20268;-67
2021/08/31 11:13:59;;;;;;;2.92;2.03;;;21.70;99.90;;;;;;5085790;28;20185;-65
2021/08/31 11:16:30;;;;;;;2.58;2.10;;;21.80;99.90;;;;;;5085236;28;21281;-66
2021/08/31 11:18:57;;;;;;;2.60;2.13;;;21.60;99.90;;;;;;5086285;28;20184;-68
2021/08/31 11:21:23;;;;;;;2.22;2.03;;;21.70;99.90;;;;;;5086669;28;20212;-67
2021/08/31 11:23:50;;;;;;;2.08;1.73;;;21.60;99.90;;;;;;5084425;28;20665;-68
2021/08/31 11:26:28;;;;;;;3.15;2.15;;;21.60;99.90;;;;;;5086267;28;20223;-66
2021/08/31 11:29:04;;;;;;;2.10;1.90;;;21.40;99.90;;;;;;5086823;28;20267;-68
2021/08/31 11:31:30;;;;;;;2.83;1.85;;;21.20;99.90;;;;;;5086267;28;20263;-67
2021/08/31 11:33:55;;;;;;;2.80;2.08;;;21.20;99.90;;;;;;5084243;28;20728;-69
2021/08/31 11:36:28;;;;;;;2.63;2.10;;;21.60;99.90;;;;;;5086276;28;20200;-69
2021/08/31 11:39:05;;;;;;;2.35;1.88;;;21.80;99.90;;;;;;5086041;28;20200;-68
2021/08/31 11:41:35;;;;;;;3.33;1.85;;;21.70;99.90;;;;;;5086385;28;20198;-68
2021/08/31 11:44:11;;;;;;;1.85;1.52;;;21.30;99.90;;;;;;5085350;28;20239;-66
2021/08/31 11:46:45;;;;;;;2.72;1.70;;;21.50;99.90;;;;;;5085725;28;20287;-67
2021/08/31 11:49:16;;;;;;;2.70;1.60;;;21.60;99.90;;;;;;5085894;28;20174;-66
2021/08/31 11:52:11;;;;;;;1.75;1.63;;;21.70;99.90;;;;;;5086070;28;20181;-67
2021/08/31 11:54:43;;;;;;;1.85;1.70;;;21.70;99.90;;;;;;5079824;28;20577;-66
2021/08/31 11:57:09;;;;;;;2.22;1.67;;;21.60;99.90;;;;;;5085852;28;20225;-69
2021/08/31 11:59:36;;;;;;;1.40;1.30;;;21.40;99.90;;;;;;5085694;28;20652;-65
2021/08/31 12:02:21;;;;;;;1.95;1.63;;;21.50;99.90;;;;;;5085131;28;20185;-68
2021/08/31 12:04:56;;;;;;;2.35;1.88;;;21.70;99.90;;;;;;5083658;28;20287;-68
2021/08/31 12:07:27;;;;;;;2.10;1.73;;;21.90;99.90;;;;;;5085543;28;20204;-68
2021/08/31 12:09:56;;;;;;;2.05;1.55;;;21.90;99.90;;;;;;5083124;28;20238;-67
2021/08/31 12:12:22;;;;;;;3.13;1.85;;;22.00;99.90;;;;;;5085353;28;20929;-68
2021/08/31 12:14:49;;;;;;;2.28;1.50;;;22.10;99.90;;;;;;5084886;28;20200;-68
2021/08/31 12:17:32;;;;;;;1.73;1.35;;;22.20;99.90;;;;;;5084880;28;20181;-65
2021/08/31 12:20:16;;;;;;;2.03;1.77;;;22.20;99.90;;;;;;5084650;28;20183;-65
2021/08/31 12:22:44;;;;;;;1.67;1.58;;;21.80;99.90;;;;;;5084995;28;20258;-66
2021/08/31 12:25:10;;;;;;;1.95;1.75;;;21.40;99.90;;;;;;5082379;28;20212;-68
2021/08/31 12:27:41;;;;;;;1.98;1.80;;;21.40;99.90;;;;;;5084998;28;20254;-67
2021/08/31 12:30:09;;;;;;;1.92;1.55;;;21.70;99.90;;;;;;5084548;28;20185;-66
2021/08/31 12:32:35;;;;;;;2.20;1.95;;;22.10;99.90;;;;;;5085004;28;20191;-66
2021/08/31 12:35:35;;;;;;;6.32;1.90;;;22.30;99.90;;;;;;5084216;28;20219;-67
2021/08/31 12:38:24;;;;;;;2.17;1.63;;;22.10;99.90;;;;;;5084841;28;20695;-65
2021/08/31 12:40:54;;;;;;;2.17;1.90;;;21.70;99.90;;;;;;5084049;28;20177;-67
2021/08/31 12:43:21;;;;;;;2.00;1.80;;;21.60;99.90;;;;;;5084720;28;20267;-67
2021/08/31 12:45:48;;;;;;;2.63;2.03;;;21.90;99.90;;;;;;5083506;28;20726;-66
2021/08/31 12:48:15;;;;;;;2.00;1.80;;;22.10;99.90;;;;;;5084733;28;20187;-65
2021/08/31 12:50:52;;;;;;;2.40;1.85;;;22.00;99.90;;;;;;5084791;28;20550;-68